McCarr, Kentucky
Current Conditions -  °F | °C
As of 10:15 AM on Monday 24 Nov 2014 (Local Time) from KPBX Reporting Station
Overcast Overcast  
Wind Chill: 66°   Ceiling: 5000
Heat Index: 66°   Visibility: 10mi
Dew Point: 46°   Wind: 13mph
Humidity: 49%   Direction: 190°S
Pressure: 29.59"   Gusts: 23mph
Location:  37.61°N, 82.17°W
Report Text: KPBX 241515Z AUTO 19011G20KT 140V220 10SM OVC050 19/08 A2959 RMK AO2 T01910080
Loading
Personal Weather Stations






























Interactive Weather Map New forecast layout! Learn more

10-Day Weather Forecast

Advertisements
Track Severe Weather on mobile